sensor_id;sensor_type;location;lat;lon;timestamp;pressure;altitude;pressure_sealevel;temperature;humidity
38038;BME280;23843;51.320;12.340;2023-03-21T05:30:45;100442.66;;;9.48;100.00
38038;BME280;23843;51.320;12.340;2023-03-21T05:33:11;100446.34;;;9.43;100.00
38038;BME280;23843;51.320;12.340;2023-03-21T05:35:37;100446.59;;;9.39;100.00
38038;BME280;23843;51.320;12.340;2023-03-21T05:38:03;100447.44;;;9.39;100.00
38038;BME280;23843;51.320;12.340;2023-03-21T05:40:28;100451.00;;;9.38;100.00
38038;BME280;23843;51.320;12.340;2023-03-21T05:42:54;100442.78;;;9.45;100.00
38038;BME280;23843;51.320;12.340;2023-03-21T05:45:19;100440.94;;;9.47;100.00
38038;BME280;23843;51.320;12.340;2023-03-21T05:47:46;100437.34;;;9.48;100.00
38038;BME280;23843;51.320;12.340;2023-03-21T05:50:12;100439.09;;;9.49;100.00
38038;BME280;23843;51.320;12.340;2023-03-21T05:52:38;100439.09;;;9.49;100.00
38038;BME280;23843;51.320;12.340;2023-03-21T05:55:04;100433.69;;;9.50;100.00
38038;BME280;23843;51.320;12.340;2023-03-21T05:57:29;100434.56;;;9.51;100.00
38038;BME280;23843;51.320;12.340;2023-03-21T05:59:55;100427.41;;;9.53;100.00
38038;BME280;23843;51.320;12.340;2023-03-21T06:02:20;100428.13;;;9.56;100.00
38038;BME280;23843;51.320;12.340;2023-03-21T06:04:47;100430.69;;;9.58;100.00
38038;BME280;23843;51.320;12.340;2023-03-21T06:07:12;100429.91;;;9.56;100.00
38038;BME280;23843;51.320;12.340;2023-03-21T06:09:38;100430.78;;;9.56;100.00
38038;BME280;23843;51.320;12.340;2023-03-21T06:12:04;100439.50;;;9.58;100.00
38038;BME280;23843;51.320;12.340;2023-03-21T06:14:29;100439.41;;;9.60;100.00
38038;BME280;23843;51.320;12.340;2023-03-21T06:16:55;100439.19;;;9.64;100.00
38038;BME280;23843;51.320;12.340;2023-03-21T06:19:20;100436.31;;;9.69;100.00
38038;BME280;23843;51.320;12.340;2023-03-21T06:21:47;100435.88;;;9.78;100.00
38038;BME280;23843;51.320;12.340;2023-03-21T06:24:13;100434.41;;;9.90;100.00
38038;BME280;23843;51.320;12.340;2023-03-21T06:26:39;100434.81;;;10.00;100.00
38038;BME280;23843;51.320;12.340;2023-03-21T06:29:04;100436.28;;;10.05;100.00
38038;BME280;23843;51.320;12.340;2023-03-21T06:31:30;100438.69;;;10.10;100.00
38038;BME280;23843;51.320;12.340;2023-03-21T06:33:55;100449.97;;;10.14;100.00
38038;BME280;23843;51.320;12.340;2023-03-21T06:36:21;100445.69;;;10.11;100.00
38038;BME280;23843;51.320;12.340;2023-03-21T06:38:47;100451.22;;;10.06;100.00
38038;BME280;23843;51.320;12.340;2023-03-21T06:41:13;100450.91;;;10.13;100.00
38038;BME280;23843;51.320;12.340;2023-03-21T06:43:39;100453.47;;;10.14;100.00
38038;BME280;23843;51.320;12.340;2023-03-21T06:46:04;100440.78;;;10.21;100.00
38038;BME280;23843;51.320;12.340;2023-03-21T06:48:30;100456.28;;;10.28;100.00
38038;BME280;23843;51.320;12.340;2023-03-21T06:50:56;100449.28;;;10.27;100.00
38038;BME280;23843;51.320;12.340;2023-03-21T06:53:23;100453.94;;;10.22;100.00
38038;BME280;23843;51.320;12.340;2023-03-21T06:55:50;100454.44;;;10.31;100.00
38038;BME280;23843;51.320;12.340;2023-03-21T06:58:16;100454.97;;;10.37;100.00
38038;BME280;23843;51.320;12.340;2023-03-21T07:00:42;100461.91;;;10.40;100.00
38038;BME280;23843;51.320;12.340;2023-03-21T07:03:07;100462.84;;;10.39;100.00
38038;BME280;23843;51.320;12.340;2023-03-21T07:05:34;100464.72;;;10.37;100.00
38038;BME280;23843;51.320;12.340;2023-03-21T07:08:00;100453.25;;;10.36;100.00
38038;BME280;23843;51.320;12.340;2023-03-21T07:10:26;100465.34;;;10.42;100.00
38038;BME280;23843;51.320;12.340;2023-03-21T07:12:52;100464.38;;;10.43;100.00
38038;BME280;23843;51.320;12.340;2023-03-21T07:15:18;100466.13;;;10.44;100.00
38038;BME280;23843;51.320;12.340;2023-03-21T07:17:43;100455.03;;;10.36;100.00
38038;BME280;23843;51.320;12.340;2023-03-21T07:20:10;100456.63;;;10.40;100.00
38038;BME280;23843;51.320;12.340;2023-03-21T07:22:36;100456.84;;;10.35;100.00
38038;BME280;23843;51.320;12.340;2023-03-21T07:25:01;100446.56;;;10.46;100.00
38038;BME280;23843;51.320;12.340;2023-03-21T07:27:27;100444.94;;;10.44;100.00
38038;BME280;23843;51.320;12.340;2023-03-21T07:29:53;100442.06;;;10.48;100.00
38038;BME280;23843;51.320;12.340;2023-03-21T07:32:19;100441.66;;;10.56;100.00
38038;BME280;23843;51.320;12.340;2023-03-21T07:34:44;100447.56;;;10.61;100.00
38038;BME280;23843;51.320;12.340;2023-03-21T07:37:10;100448.94;;;10.68;100.00
38038;BME280;23843;51.320;12.340;2023-03-21T07:39:35;100449.44;;;10.75;100.00
38038;BME280;23843;51.320;12.340;2023-03-21T07:42:01;100454.38;;;10.83;100.00
38038;BME280;23843;51.320;12.340;2023-03-21T07:44:27;100444.38;;;10.88;100.00
38038;BME280;23843;51.320;12.340;2023-03-21T07:46:53;100443.84;;;10.97;100.00
38038;BME280;23843;51.320;12.340;2023-03-21T07:49:19;100442.19;;;11.12;100.00
38038;BME280;23843;51.320;12.340;2023-03-21T07:51:44;100442.59;;;11.36;100.00
38038;BME280;23843;51.320;12.340;2023-03-21T07:54:10;100439.88;;;11.53;100.00
38038;BME280;23843;51.320;12.340;2023-03-21T07:56:35;100437.78;;;11.74;100.00
38038;BME280;23843;51.320;12.340;2023-03-21T07:59:01;100431.25;;;11.80;100.00
38038;BME280;23843;51.320;12.340;2023-03-21T08:01:26;100439.19;;;11.80;100.00
38038;BME280;23843;51.320;12.340;2023-03-21T08:03:53;100438.38;;;11.95;100.00
38038;BME280;23843;51.320;12.340;2023-03-21T08:06:18;100438.69;;;12.05;100.00
38038;BME280;23843;51.320;12.340;2023-03-21T08:08:44;100439.16;;;12.12;100.00
38038;BME280;23843;51.320;12.340;2023-03-21T08:11:10;100440.88;;;12.13;100.00
38038;BME280;23843;51.320;12.340;2023-03-21T08:13:36;100441.38;;;12.19;100.00
38038;BME280;23843;51.320;12.340;2023-03-21T08:16:01;100444.78;;;12.21;100.00
38038;BME280;23843;51.320;12.340;2023-03-21T08:18:26;100437.94;;;12.17;100.00
38038;BME280;23843;51.320;12.340;2023-03-21T08:20:55;100451.41;;;12.14;100.00
38038;BME280;23843;51.320;12.340;2023-03-21T08:23:20;100446.97;;;12.15;100.00
38038;BME280;23843;51.320;12.340;2023-03-21T08:25:49;100445.91;;;12.17;100.00
38038;BME280;23843;51.320;12.340;2023-03-21T08:28:15;100440.66;;;12.32;100.00
38038;BME280;23843;51.320;12.340;2023-03-21T08:30:40;100451.28;;;12.32;100.00
38038;BME280;23843;51.320;12.340;2023-03-21T08:33:06;100449.00;;;12.40;100.00
38038;BME280;23843;51.320;12.340;2023-03-21T08:35:32;100450.41;;;12.46;100.00
38038;BME280;23843;51.320;12.340;2023-03-21T08:38:00;100451.38;;;12.45;100.00
38038;BME280;23843;51.320;12.340;2023-03-21T08:40:29;100454.69;;;12.48;100.00
38038;BME280;23843;51.320;12.340;2023-03-21T08:42:54;100457.47;;;12.61;100.00
38038;BME280;23843;51.320;12.340;2023-03-21T08:45:20;100450.25;;;12.63;100.00
38038;BME280;23843;51.320;12.340;2023-03-21T08:47:45;100445.03;;;12.61;100.00
38038;BME280;23843;51.320;12.340;2023-03-21T08:50:13;100449.69;;;12.72;100.00
38038;BME280;23843;51.320;12.340;2023-03-21T08:52:39;100452.75;;;12.66;100.00
38038;BME280;23843;51.320;12.340;2023-03-21T08:55:07;100442.28;;;12.77;100.00
38038;BME280;23843;51.320;12.340;2023-03-21T08:57:32;100441.53;;;12.90;100.00
38038;BME280;23843;51.320;12.340;2023-03-21T08:59:58;100442.19;;;12.93;100.00
38038;BME280;23843;51.320;12.340;2023-03-21T09:02:23;100448.69;;;13.45;100.00
38038;BME280;23843;51.320;12.340;2023-03-21T09:04:49;100443.69;;;13.67;96.83
38038;BME280;23843;51.320;12.340;2023-03-21T09:07:14;100437.38;;;13.83;100.00
38038;BME280;23843;51.320;12.340;2023-03-21T09:09:40;100439.94;;;13.97;100.00
38038;BME280;23843;51.320;12.340;2023-03-21T09:12:08;100439.06;;;13.84;97.33
38038;BME280;23843;51.320;12.340;2023-03-21T09:14:34;100435.03;;;13.91;100.00
38038;BME280;23843;51.320;12.340;2023-03-21T09:16:59;100439.59;;;13.89;93.68
38038;BME280;23843;51.320;12.340;2023-03-21T09:19:25;100438.00;;;13.86;94.93
38038;BME280;23843;51.320;12.340;2023-03-21T09:21:50;100433.25;;;14.04;100.00
38038;BME280;23843;51.320;12.340;2023-03-21T09:24:16;100436.19;;;14.27;95.77
38038;BME280;23843;51.320;12.340;2023-03-21T09:26:41;100440.84;;;14.36;92.48
38038;BME280;23843;51.320;12.340;2023-03-21T09:29:08;100431.47;;;14.43;89.75
38038;BME280;23843;51.320;12.340;2023-03-21T09:31:34;100431.09;;;14.75;90.16
38038;BME280;23843;51.320;12.340;2023-03-21T09:33:59;100432.56;;;14.92;85.35
38038;BME280;23843;51.320;12.340;2023-03-21T09:36:25;100436.91;;;15.06;85.44
38038;BME280;23843;51.320;12.340;2023-03-21T09:38:50;100426.53;;;15.14;86.11
38038;BME280;23843;51.320;12.340;2023-03-21T09:41:25;100423.88;;;15.14;87.69
38038;BME280;23843;51.320;12.340;2023-03-21T09:44:05;100418.81;;;15.35;80.28
38038;BME280;23843;51.320;12.340;2023-03-21T09:46:42;100417.41;;;15.66;79.29
38038;BME280;23843;51.320;12.340;2023-03-21T09:49:14;100413.25;;;15.62;78.24
38038;BME280;23843;51.320;12.340;2023-03-21T09:51:43;100413.59;;;15.81;79.28
38038;BME280;23843;51.320;12.340;2023-03-21T09:54:12;100405.47;;;16.18;83.23
38038;BME280;23843;51.320;12.340;2023-03-21T09:56:41;100409.75;;;16.32;77.14
38038;BME280;23843;51.320;12.340;2023-03-21T09:59:18;100403.56;;;16.32;77.55
38038;BME280;23843;51.320;12.340;2023-03-21T10:01:47;100400.16;;;16.30;76.26
38038;BME280;23843;51.320;12.340;2023-03-21T10:04:14;100397.00;;;16.36;76.64
38038;BME280;23843;51.320;12.340;2023-03-21T10:06:40;100402.09;;;15.92;76.95
38038;BME280;23843;51.320;12.340;2023-03-21T10:09:12;100391.72;;;16.12;76.39
38038;BME280;23843;51.320;12.340;2023-03-21T10:11:42;100398.69;;;16.14;79.25
38038;BME280;23843;51.320;12.340;2023-03-21T10:14:15;100388.50;;;16.42;76.17
38038;BME280;23843;51.320;12.340;2023-03-21T10:16:43;100390.41;;;16.29;72.21
38038;BME280;23843;51.320;12.340;2023-03-21T10:19:13;100381.44;;;16.30;72.14
38038;BME280;23843;51.320;12.340;2023-03-21T10:21:39;100383.59;;;16.13;73.92
38038;BME280;23843;51.320;12.340;2023-03-21T10:24:08;100373.59;;;16.04;76.75
38038;BME280;23843;51.320;12.340;2023-03-21T10:26:35;100374.38;;;16.29;83.86
38038;BME280;23843;51.320;12.340;2023-03-21T10:29:02;100374.97;;;16.10;76.34
38038;BME280;23843;51.320;12.340;2023-03-21T10:31:28;100368.50;;;16.01;74.39
38038;BME280;23843;51.320;12.340;2023-03-21T10:33:57;100358.94;;;16.10;74.07
38038;BME280;23843;51.320;12.340;2023-03-21T10:36:26;100365.88;;;16.23;75.52
38038;BME280;23843;51.320;12.340;2023-03-21T10:38:54;100363.31;;;16.33;73.56
38038;BME280;23843;51.320;12.340;2023-03-21T10:41:20;100368.69;;;16.22;74.25
38038;BME280;23843;51.320;12.340;2023-03-21T10:43:46;100363.34;;;16.22;72.61
38038;BME280;23843;51.320;12.340;2023-03-21T10:46:27;100362.13;;;16.37;72.75
38038;BME280;23843;51.320;12.340;2023-03-21T10:48:53;100367.22;;;16.40;71.88
38038;BME280;23843;51.320;12.340;2023-03-21T10:51:20;100362.03;;;16.61;72.80
38038;BME280;23843;51.320;12.340;2023-03-21T10:53:51;100361.44;;;16.80;71.27
38038;BME280;23843;51.320;12.340;2023-03-21T10:56:22;100361.41;;;16.92;73.17
38038;BME280;23843;51.320;12.340;2023-03-21T10:58:49;100368.22;;;17.07;68.92
38038;BME280;23843;51.320;12.340;2023-03-21T11:01:24;100360.25;;;17.17;69.13
38038;BME280;23843;51.320;12.340;2023-03-21T11:03:54;100354.44;;;17.11;68.81
38038;BME280;23843;51.320;12.340;2023-03-21T11:06:25;100355.53;;;17.09;66.36
38038;BME280;23843;51.320;12.340;2023-03-21T11:08:55;100356.06;;;17.03;71.68
38038;BME280;23843;51.320;12.340;2023-03-21T11:11:24;100346.41;;;17.23;72.28
38038;BME280;23843;51.320;12.340;2023-03-21T11:13:56;100346.78;;;17.18;66.44
38038;BME280;23843;51.320;12.340;2023-03-21T11:16:24;100348.63;;;17.06;69.95
38038;BME280;23843;51.320;12.340;2023-03-21T11:18:51;100340.00;;;17.03;72.97
38038;BME280;23843;51.320;12.340;2023-03-21T11:21:20;100345.00;;;16.96;68.67
38038;BME280;23843;51.320;12.340;2023-03-21T11:23:48;100330.28;;;16.68;70.36
38038;BME280;23843;51.320;12.340;2023-03-21T11:26:19;100326.03;;;16.54;72.70
38038;BME280;23843;51.320;12.340;2023-03-21T11:28:45;100335.75;;;16.55;72.65
38038;BME280;23843;51.320;12.340;2023-03-21T11:31:11;100322.16;;;16.47;71.83
38038;BME280;23843;51.320;12.340;2023-03-21T11:33:38;100324.81;;;16.47;71.98
38038;BME280;23843;51.320;12.340;2023-03-21T11:36:23;100325.44;;;16.39;74.28
38038;BME280;23843;51.320;12.340;2023-03-21T11:38:50;100329.41;;;16.67;71.98
38038;BME280;23843;51.320;12.340;2023-03-21T11:41:23;100318.59;;;16.92;72.78
38038;BME280;23843;51.320;12.340;2023-03-21T11:43:51;100325.31;;;16.86;68.25
38038;BME280;23843;51.320;12.340;2023-03-21T11:46:22;100314.13;;;16.81;67.65
38038;BME280;23843;51.320;12.340;2023-03-21T11:48:48;100308.03;;;16.90;67.99
38038;BME280;23843;51.320;12.340;2023-03-21T11:51:21;100310.00;;;16.88;65.88
38038;BME280;23843;51.320;12.340;2023-03-21T11:53:56;100307.44;;;16.86;66.89
38038;BME280;23843;51.320;12.340;2023-03-21T11:56:28;100299.50;;;16.85;66.70
38038;BME280;23843;51.320;12.340;2023-03-21T11:59:05;100308.28;;;16.87;67.36
38038;BME280;23843;51.320;12.340;2023-03-21T12:01:37;100291.22;;;16.77;66.17
38038;BME280;23843;51.320;12.340;2023-03-21T12:04:31;100288.97;;;16.50;70.17
38038;BME280;23843;51.320;12.340;2023-03-21T12:07:08;100286.16;;;16.62;69.65
38038;BME280;23843;51.320;12.340;2023-03-21T12:09:41;100275.09;;;16.67;69.53
38038;BME280;23843;51.320;12.340;2023-03-21T12:12:17;100277.63;;;16.80;70.11
38038;BME280;23843;51.320;12.340;2023-03-21T12:14:56;100277.88;;;16.77;67.48
38038;BME280;23843;51.320;12.340;2023-03-21T12:17:32;100271.03;;;16.73;70.88
38038;BME280;23843;51.320;12.340;2023-03-21T12:20:15;100275.91;;;16.67;69.67
38038;BME280;23843;51.320;12.340;2023-03-21T12:22:55;100269.56;;;17.02;69.68
38038;BME280;23843;51.320;12.340;2023-03-21T12:25:31;100258.88;;;17.02;67.73
38038;BME280;23843;51.320;12.340;2023-03-21T12:28:08;100256.38;;;17.22;70.07
38038;BME280;23843;51.320;12.340;2023-03-21T12:30:49;100258.00;;;17.34;66.29
38038;BME280;23843;51.320;12.340;2023-03-21T12:33:29;100258.03;;;17.23;67.27
38038;BME280;23843;51.320;12.340;2023-03-21T12:36:16;100258.50;;;17.28;66.43
38038;BME280;23843;51.320;12.340;2023-03-21T12:38:49;100245.56;;;17.12;68.02
38038;BME280;23843;51.320;12.340;2023-03-21T12:41:22;100252.31;;;17.27;66.92
38038;BME280;23843;51.320;12.340;2023-03-21T12:43:53;100250.56;;;17.38;67.89
38038;BME280;23843;51.320;12.340;2023-03-21T12:46:23;100234.75;;;17.55;71.80
38038;BME280;23843;51.320;12.340;2023-03-21T12:48:55;100245.22;;;17.59;66.22
38038;BME280;23843;51.320;12.340;2023-03-21T12:51:26;100243.13;;;17.41;68.37
38038;BME280;23843;51.320;12.340;2023-03-21T12:53:59;100239.59;;;17.62;68.38
38038;BME280;23843;51.320;12.340;2023-03-21T12:56:30;100235.28;;;17.49;67.06
38038;BME280;23843;51.320;12.340;2023-03-21T12:59:02;100227.28;;;17.38;67.35
38038;BME280;23843;51.320;12.340;2023-03-21T13:01:31;100224.63;;;17.59;68.22
38038;BME280;23843;51.320;12.340;2023-03-21T13:04:27;100217.81;;;17.55;69.70
38038;BME280;23843;51.320;12.340;2023-03-21T13:06:55;100215.53;;;17.50;67.57
38038;BME280;23843;51.320;12.340;2023-03-21T13:09:30;100213.66;;;17.41;68.89
38038;BME280;23843;51.320;12.340;2023-03-21T13:12:02;100213.59;;;17.52;69.17
38038;BME280;23843;51.320;12.340;2023-03-21T13:14:36;100211.63;;;17.54;69.72
38038;BME280;23843;51.320;12.340;2023-03-21T13:17:08;100200.13;;;17.64;70.20
38038;BME280;23843;51.320;12.340;2023-03-21T13:19:38;100201.81;;;17.65;69.69
38038;BME280;23843;51.320;12.340;2023-03-21T13:22:13;100193.00;;;17.74;71.98
38038;BME280;23843;51.320;12.340;2023-03-21T13:24:47;100194.69;;;17.75;67.81
38038;BME280;23843;51.320;12.340;2023-03-21T13:27:18;100189.81;;;17.80;69.75
38038;BME280;23843;51.320;12.340;2023-03-21T13:29:50;100183.91;;;17.65;66.70
38038;BME280;23843;51.320;12.340;2023-03-21T13:32:22;100185.78;;;17.74;65.60
38038;BME280;23843;51.320;12.340;2023-03-21T13:34:53;100181.56;;;17.72;66.41
38038;BME280;23843;51.320;12.340;2023-03-21T13:37:20;100183.84;;;17.76;69.18
38038;BME280;23843;51.320;12.340;2023-03-21T13:39:47;100165.75;;;17.69;66.08
38038;BME280;23843;51.320;12.340;2023-03-21T13:42:20;100181.81;;;17.69;69.21
38038;BME280;23843;51.320;12.340;2023-03-21T13:44:51;100175.88;;;17.65;65.88
38038;BME280;23843;51.320;12.340;2023-03-21T13:47:34;100170.41;;;17.67;66.67
38038;BME280;23843;51.320;12.340;2023-03-21T13:50:20;100169.41;;;17.68;65.73
38038;BME280;23843;51.320;12.340;2023-03-21T13:53:10;100168.25;;;17.61;66.60
38038;BME280;23843;51.320;12.340;2023-03-21T13:55:40;100169.88;;;17.52;68.15
38038;BME280;23843;51.320;12.340;2023-03-21T13:58:21;100159.97;;;17.43;68.79
38038;BME280;23843;51.320;12.340;2023-03-21T14:01:08;100153.19;;;17.39;68.49
38038;BME280;23843;51.320;12.340;2023-03-21T14:03:35;100156.56;;;17.41;69.60
38038;BME280;23843;51.320;12.340;2023-03-21T14:06:01;100148.69;;;17.39;69.48
38038;BME280;23843;51.320;12.340;2023-03-21T14:08:27;100147.50;;;17.32;70.00
38038;BME280;23843;51.320;12.340;2023-03-21T14:10:55;100151.75;;;17.35;71.63
38038;BME280;23843;51.320;12.340;2023-03-21T14:13:23;100150.25;;;17.42;71.98
38038;BME280;23843;51.320;12.340;2023-03-21T14:15:51;100148.69;;;17.39;70.80
38038;BME280;23843;51.320;12.340;2023-03-21T14:18:20;100149.41;;;17.41;71.31
38038;BME280;23843;51.320;12.340;2023-03-21T14:20:51;100139.94;;;17.37;72.06
38038;BME280;23843;51.320;12.340;2023-03-21T14:23:16;100139.38;;;17.43;73.96
38038;BME280;23843;51.320;12.340;2023-03-21T14:25:43;100136.00;;;17.41;71.67
38038;BME280;23843;51.320;12.340;2023-03-21T14:28:13;100136.25;;;17.38;71.56
38038;BME280;23843;51.320;12.340;2023-03-21T14:30:41;100129.94;;;17.39;73.26
38038;BME280;23843;51.320;12.340;2023-03-21T14:33:14;100131.22;;;17.45;73.19
38038;BME280;23843;51.320;12.340;2023-03-21T14:35:44;100130.94;;;17.48;74.13
38038;BME280;23843;51.320;12.340;2023-03-21T14:38:18;100122.47;;;17.43;73.73
38038;BME280;23843;51.320;12.340;2023-03-21T14:40:46;100124.31;;;17.42;71.93
38038;BME280;23843;51.320;12.340;2023-03-21T14:43:12;100122.16;;;17.36;71.36
38038;BME280;23843;51.320;12.340;2023-03-21T14:45:38;100122.09;;;17.26;72.39
38038;BME280;23843;51.320;12.340;2023-03-21T14:48:05;100117.84;;;17.24;73.53
38038;BME280;23843;51.320;12.340;2023-03-21T14:50:36;100113.31;;;17.15;73.65
38038;BME280;23843;51.320;12.340;2023-03-21T14:53:06;100118.38;;;17.18;73.39
38038;BME280;23843;51.320;12.340;2023-03-21T14:55:32;100102.44;;;17.16;74.22
38038;BME280;23843;51.320;12.340;2023-03-21T14:57:57;100106.31;;;17.23;75.26
38038;BME280;23843;51.320;12.340;2023-03-21T15:00:25;100105.47;;;17.23;73.87
38038;BME280;23843;51.320;12.340;2023-03-21T15:02:52;100100.38;;;17.20;73.06
38038;BME280;23843;51.320;12.340;2023-03-21T15:05:22;100098.22;;;17.14;73.25
38038;BME280;23843;51.320;12.340;2023-03-21T15:07:53;100097.03;;;17.06;74.28
38038;BME280;23843;51.320;12.340;2023-03-21T15:10:21;100091.84;;;17.05;73.73
38038;BME280;23843;51.320;12.340;2023-03-21T15:12:50;100086.88;;;17.00;74.00
38038;BME280;23843;51.320;12.340;2023-03-21T15:15:16;100094.75;;;17.02;74.37
38038;BME280;23843;51.320;12.340;2023-03-21T15:17:42;100089.34;;;16.92;74.35
38038;BME280;23843;51.320;12.340;2023-03-21T15:20:12;100089.88;;;16.86;75.03
38038;BME280;23843;51.320;12.340;2023-03-21T15:22:40;100080.13;;;16.85;75.22
38038;BME280;23843;51.320;12.340;2023-03-21T15:25:13;100084.28;;;16.78;75.29
38038;BME280;23843;51.320;12.340;2023-03-21T15:27:44;100088.78;;;16.77;76.74
38038;BME280;23843;51.320;12.340;2023-03-21T15:30:18;100080.41;;;16.82;77.30
38038;BME280;23843;51.320;12.340;2023-03-21T15:32:44;100074.78;;;16.85;76.08
38038;BME280;23843;51.320;12.340;2023-03-21T15:35:14;100068.06;;;16.90;77.56
38038;BME280;23843;51.320;12.340;2023-03-21T15:37:41;100071.03;;;16.87;77.14
38038;BME280;23843;51.320;12.340;2023-03-21T15:40:09;100074.66;;;16.86;78.53
38038;BME280;23843;51.320;12.340;2023-03-21T15:42:40;100068.19;;;16.89;78.65
38038;BME280;23843;51.320;12.340;2023-03-21T15:45:24;100069.03;;;16.89;78.11
38038;BME280;23843;51.320;12.340;2023-03-21T15:47:52;100064.06;;;16.85;79.31
38038;BME280;23843;51.320;12.340;2023-03-21T15:50:28;100061.41;;;16.85;78.61
38038;BME280;23843;51.320;12.340;2023-03-21T15:52:58;100063.38;;;16.83;78.27
38038;BME280;23843;51.320;12.340;2023-03-21T15:55:27;100065.44;;;16.79;76.57
38038;BME280;23843;51.320;12.340;2023-03-21T15:57:58;100056.09;;;16.74;77.08
38038;BME280;23843;51.320;12.340;2023-03-21T16:00:30;100064.88;;;16.64;76.29
38038;BME280;23843;51.320;12.340;2023-03-21T16:03:01;100061.88;;;16.58;76.75
38038;BME280;23843;51.320;12.340;2023-03-21T16:05:29;100065.41;;;16.58;78.24
38038;BME280;23843;51.320;12.340;2023-03-21T16:08:03;100065.66;;;16.55;77.74
38038;BME280;23843;51.320;12.340;2023-03-21T16:10:30;100062.53;;;16.50;78.41
38038;BME280;23843;51.320;12.340;2023-03-21T16:12:56;100065.00;;;16.42;78.91
38038;BME280;23843;51.320;12.340;2023-03-21T16:15:23;100060.88;;;16.38;79.68
38038;BME280;23843;51.320;12.340;2023-03-21T16:17:52;100063.06;;;16.33;79.91
38038;BME280;23843;51.320;12.340;2023-03-21T16:20:21;100074.88;;;16.30;80.64
38038;BME280;23843;51.320;12.340;2023-03-21T16:22:47;100064.66;;;16.24;81.56
38038;BME280;23843;51.320;12.340;2023-03-21T16:25:13;100070.91;;;16.24;82.00
38038;BME280;23843;51.320;12.340;2023-03-21T16:27:38;100073.69;;;16.23;82.55
38038;BME280;23843;51.320;12.340;2023-03-21T16:30:05;100071.13;;;16.21;82.92
38038;BME280;23843;51.320;12.340;2023-03-21T16:32:31;100072.00;;;16.22;82.89
38038;BME280;23843;51.320;12.340;2023-03-21T16:34:57;100064.09;;;16.20;83.08
38038;BME280;23843;51.320;12.340;2023-03-21T16:37:23;100070.44;;;16.19;83.32
38038;BME280;23843;51.320;12.340;2023-03-21T16:39:48;100064.63;;;16.14;84.14
38038;BME280;23843;51.320;12.340;2023-03-21T16:42:14;100070.19;;;16.11;84.58
38038;BME280;23843;51.320;12.340;2023-03-21T16:44:39;100072.13;;;16.09;85.50
38038;BME280;23843;51.320;12.340;2023-03-21T16:47:12;100068.25;;;16.02;86.32
38038;BME280;23843;51.320;12.340;2023-03-21T16:49:38;100062.34;;;15.98;86.74
38038;BME280;23843;51.320;12.340;2023-03-21T16:52:05;100070.72;;;15.94;87.16
38038;BME280;23843;51.320;12.340;2023-03-21T16:54:31;100071.34;;;15.86;88.39
38038;BME280;23843;51.320;12.340;2023-03-21T16:56:56;100066.63;;;15.78;88.93
38038;BME280;23843;51.320;12.340;2023-03-21T16:59:22;100067.00;;;15.74;88.11
38038;BME280;23843;51.320;12.340;2023-03-21T17:01:47;100069.78;;;15.72;88.47
38038;BME280;23843;51.320;12.340;2023-03-21T17:04:14;100071.50;;;15.73;87.91
38038;BME280;23843;51.320;12.340;2023-03-21T17:06:42;100076.81;;;15.73;87.85
38038;BME280;23843;51.320;12.340;2023-03-21T17:09:13;100073.16;;;15.74;87.77
38038;BME280;23843;51.320;12.340;2023-03-21T17:11:39;100075.97;;;15.73;87.48
38038;BME280;23843;51.320;12.340;2023-03-21T17:14:05;100081.44;;;15.71;87.64
38038;BME280;23843;51.320;12.340;2023-03-21T17:16:30;100075.34;;;15.69;87.03
38038;BME280;23843;51.320;12.340;2023-03-21T17:18:59;100073.88;;;15.65;87.39
38038;BME280;23843;51.320;12.340;2023-03-21T17:21:26;100074.75;;;15.66;87.18
38038;BME280;23843;51.320;12.340;2023-03-21T17:23:53;100086.50;;;15.63;87.11
38038;BME280;23843;51.320;12.340;2023-03-21T17:26:21;100083.13;;;15.61;87.57
38038;BME280;23843;51.320;12.340;2023-03-21T17:28:47;100086.16;;;15.56;87.47
38038;BME280;23843;51.320;12.340;2023-03-21T17:31:14;100084.56;;;15.54;88.04
38038;BME280;23843;51.320;12.340;2023-03-21T17:33:40;100086.13;;;15.45;88.99
38038;BME280;23843;51.320;12.340;2023-03-21T17:36:11;100091.25;;;15.37;90.26
38038;BME280;23843;51.320;12.340;2023-03-21T17:38:36;100093.41;;;15.32;91.02
38038;BME280;23843;51.320;12.340;2023-03-21T17:41:02;100095.59;;;15.27;91.45
38038;BME280;23843;51.320;12.340;2023-03-21T17:43:29;100097.88;;;15.20;91.46
38038;BME280;23843;51.320;12.340;2023-03-21T17:45:54;100099.19;;;15.03;92.04
38038;BME280;23843;51.320;12.340;2023-03-21T17:48:20;100100.38;;;14.99;91.80
38038;BME280;23843;51.320;12.340;2023-03-21T17:50:45;100109.81;;;14.92;93.49
38038;BME280;23843;51.320;12.340;2023-03-21T17:53:11;100105.56;;;14.89;92.98
38038;BME280;23843;51.320;12.340;2023-03-21T17:55:36;100115.97;;;14.81;94.63
38038;BME280;23843;51.320;12.340;2023-03-21T17:58:02;100111.72;;;14.79;94.18
38038;BME280;23843;51.320;12.340;2023-03-21T18:00:29;100117.50;;;14.72;96.23
38038;BME280;23843;51.320;12.340;2023-03-21T18:02:55;100116.25;;;14.65;98.84
38038;BME280;23843;51.320;12.340;2023-03-21T18:05:21;100121.09;;;14.60;98.07
38038;BME280;23843;51.320;12.340;2023-03-21T18:07:48;100121.03;;;14.49;100.00
38038;BME280;23843;51.320;12.340;2023-03-21T18:10:17;100126.69;;;14.44;100.00
38038;BME280;23843;51.320;12.340;2023-03-21T18:12:43;100121.59;;;14.41;100.00
38038;BME280;23843;51.320;12.340;2023-03-21T18:15:09;100127.03;;;14.40;100.00